Observations for ODIHAM RAF, United Kingdom (EGVO)

EGVO 112150Z 11005KT 6000 BR FEW030 BKN060 BKN170 05/04 Q1021 WHT NOSIG 
EGVO 112050Z 12006KT 8000 BR SCT030 BKN180 05/04 Q1021 BLU BECMG 6000 BR WHT
EGVO 111950Z 13007KT 8000 BR BKN030 BKN170 05/05 Q1022 BLU BECMG 6000 BR WHT
EGVO 111850Z 13008KT 9999 FEW030 SCT170 05/05 Q1022 BLU NOSIG   
EGVO 111750Z 13009KT 9999 FEW032 05/04 Q1022 BLU NOSIG  
EGVO 111650Z 13008KT 9999 SCT032 05/04 Q1022 BLU NOSIG  
EGVO 111550Z 11004KT 9999 FEW032 06/04 Q1022 BLU NOSIG  
EGVO 111450Z 14005KT CAVOK 08/05 Q1022 BLU NOSIG
EGVO 111350Z 16006KT 9999 FEW015 09/05 Q1023 BLU NOSIG  
EGVO 111250Z 17007KT 9999 FEW015 09/05 Q1023 BLU NOSIG  
EGVO 111150Z 17007KT CAVOK 08/05 Q1024 BLU NOSIG
EGVO 111050Z 16004KT CAVOK 08/04 Q1025 BLU NOSIG
EGVO 110950Z 16004KT CAVOK 06/04 Q1025 BLU NOSIG
EGVO 110850Z 18005KT CAVOK 04/03 Q1025 BLU NOSIG
EGVO 110750Z 21004KT 9999 FEW028 02/01 Q1025 BLU NOSIG  
EGVO 110650Z 17002KT 9999 FEW028 02/02 Q1025 BLU
EGVO 110550Z 15003KT 9999 BKN028 02/02 Q1025 BLU
EGVO 110450Z 23002KT 9999 BKN018 03/02 Q1025 WHT
EGVO 110350Z 12004KT 9999 FEW019 01/00 Q1025 BLU
EGVO 110250Z AUTO 18003KT 9999 NCD 02/01 Q1026  
EGVO 110150Z AUTO 18003KT 9999 NCD 02/01 Q1026  
EGVO 110050Z 20003KT CAVOK 03/02 Q1027 BLU  
EGVO 102350Z 25004KT CAVOK 04/03 Q1027 BLU  
EGVO 102250Z 24005KT CAVOK 05/03 Q1027 BLU NOSIG
EGVO 102150Z 24005KT CAVOK 06/04 Q1027 BLU NOSIG